»·PEaware :: N2235V KMHV-KSMO

N2235V :: KMHV-KSMO

FLIGHT INFORMATION

Flight Status: Arrived
Operator: Privately registered:
United States
More flights under this callsign
Pilot: Isael M. (1786)
Aircraft: CESSNA 172 SKYHAWK
(C172)
More flights by this aircraft type
Origin: KMHV Mojave
United States
Destination: KSMO Santa Monica Mun
United States
More flights between these airports :: More routes between these airports
Route: PMD V518 KIMMO V459 DARTS
File this flight plan on PilotEdge
Remarks:
Altitude:
(Current/Filed)
8,000ft
Speed:
(Current/Filed)
100kts
Departed: 12-Jan-23 03:18 PM
Arrived: 12-Jan-23 04:02 PM
Distance/Time
Traveled:
65nm/0:44
Distance/Time
To Go:
Arrived

Flight Plot

Page will automatically refresh every two minutes.

Flight plan parsing failed; only flown route is shown


Map Options




Map Legend


Flown Route
Filed Route
Departure Airport
Arrival Airport
Navaid (VOR, NDB)
Fix

Horizontal Profiles

Position Reports

Time Latitude Longitude Heading Altitude Ground
Speed
12-Jan-23 14:36 35.057228 -118.150489 91 2753ft 0kts
12-Jan-23 14:37 35.057228 -118.150489 91 2753ft 0kts
12-Jan-23 14:37 35.057228 -118.150489 91 2753ft 0kts
12-Jan-23 14:39 35.057228 -118.150489 91 2753ft 0kts
12-Jan-23 14:40 35.057228 -118.150489 91 2753ft 0kts
12-Jan-23 14:41 35.057228 -118.150489 91 2753ft 0kts
12-Jan-23 14:41 35.057228 -118.150489 91 2753ft 0kts
12-Jan-23 14:42 35.057228 -118.150489 91 2753ft 0kts
12-Jan-23 14:44 35.057228 -118.150489 91 2753ft 0kts
12-Jan-23 14:44 35.057228 -118.150489 91 2753ft 0kts
12-Jan-23 14:45 35.057228 -118.150489 91 2753ft 0kts
12-Jan-23 14:46 35.057228 -118.150489 91 2753ft 0kts
12-Jan-23 14:47 35.057228 -118.150489 91 2753ft 0kts
12-Jan-23 14:49 35.057228 -118.150489 91 2753ft 0kts
12-Jan-23 14:49 35.057228 -118.150489 91 2753ft 0kts
12-Jan-23 14:50 35.057228 -118.150489 91 2753ft 0kts
12-Jan-23 14:51 35.057228 -118.150489 91 2753ft 0kts
12-Jan-23 14:52 35.057228 -118.150489 91 2753ft 0kts
12-Jan-23 14:53 35.057228 -118.150489 91 2753ft 0kts
12-Jan-23 14:54 35.057228 -118.150489 91 2753ft 0kts
12-Jan-23 14:55 35.057228 -118.150489 91 2753ft 0kts
12-Jan-23 14:56 35.057228 -118.150489 91 2753ft 0kts
12-Jan-23 14:57 35.057228 -118.150489 91 2753ft 0kts
12-Jan-23 14:58 35.057228 -118.150489 91 2753ft 0kts
12-Jan-23 14:59 35.057228 -118.150489 91 2753ft 0kts
12-Jan-23 15:00 35.057228 -118.150489 91 2753ft 0kts
12-Jan-23 15:01 35.057228 -118.150489 91 2753ft 0kts
12-Jan-23 15:02 35.057228 -118.150489 91 2753ft 0kts
12-Jan-23 15:03 35.057228 -118.150489 91 2753ft 0kts
12-Jan-23 15:04 35.057228 -118.150489 91 2753ft 0kts
12-Jan-23 15:05 35.057228 -118.150489 91 2753ft 0kts
12-Jan-23 15:06 35.057228 -118.150489 91 2753ft 0kts
12-Jan-23 15:07 35.057228 -118.150489 91 2753ft 0kts
12-Jan-23 15:08 35.057228 -118.150489 91 2753ft 0kts
12-Jan-23 15:09 35.057228 -118.150489 91 2753ft 0kts
12-Jan-23 15:10 35.057228 -118.150489 91 2753ft 0kts
12-Jan-23 15:11 35.057610 -118.149094 83 2751ft 13kts
12-Jan-23 15:12 35.057609 -118.143957 82 2742ft 16kts
12-Jan-23 15:13 35.058355 -118.142536 1 2739ft 0kts
12-Jan-23 15:14 35.058355 -118.142536 1 2739ft 0kts
12-Jan-23 15:15 35.059193 -118.143373 271 2741ft 17kts
12-Jan-23 15:16 35.059207 -118.144527 270 2743ft 28kts
12-Jan-23 15:17 35.059160 -118.167786 268 2837ft 100kts
12-Jan-23 15:18 35.043566 -118.194579 229 3705ft 98kts
12-Jan-23 15:19 35.026860 -118.218801 228 4613ft 90kts
12-Jan-23 15:20 35.011093 -118.242514 231 5372ft 88kts
12-Jan-23 15:21 34.995746 -118.265153 231 6082ft 84kts
12-Jan-23 15:22 34.980807 -118.286329 231 6752ft 80kts
12-Jan-23 15:23 34.964453 -118.303545 215 7325ft 76kts
12-Jan-23 15:24 34.943477 -118.291724 151 7599ft 102kts
12-Jan-23 15:25 34.919199 -118.273394 154 7923ft 102kts
12-Jan-23 15:26 34.895697 -118.256147 155 8333ft 91kts
12-Jan-23 15:27 34.873405 -118.239908 155 8538ft 104kts
12-Jan-23 15:28 34.849577 -118.222459 156 9044ft 97kts
12-Jan-23 15:29 34.826829 -118.205845 157 9525ft 92kts
12-Jan-23 15:30 34.804370 -118.189533 157 9837ft 105kts
12-Jan-23 15:31 34.776749 -118.169458 156 9837ft 121kts
12-Jan-23 15:32 34.747578 -118.148220 153 9840ft 122kts
12-Jan-23 15:33 34.717485 -118.126324 150 9663ft 126kts
12-Jan-23 15:34 34.686805 -118.104009 150 9659ft 133kts
12-Jan-23 15:35 34.654485 -118.080552 150 9666ft 136kts
12-Jan-23 15:36 34.623096 -118.076952 242 9675ft 113kts
12-Jan-23 15:37 34.604616 -118.106691 235 9663ft 115kts
12-Jan-23 15:38 34.584626 -118.138728 240 9676ft 119kts
12-Jan-23 15:39 34.564825 -118.170465 233 9677ft 118kts
12-Jan-23 15:40 34.544978 -118.202221 233 9673ft 116kts
12-Jan-23 15:41 34.525380 -118.233548 235 9671ft 117kts
12-Jan-23 15:42 34.505621 -118.265119 233 9674ft 118kts
12-Jan-23 15:43 34.485616 -118.297034 233 9677ft 120kts
12-Jan-23 15:44 34.465567 -118.328985 233 9755ft 116kts
12-Jan-23 15:45 34.445238 -118.361390 239 9759ft 121kts
12-Jan-23 15:46 34.425127 -118.393389 237 9769ft 120kts
12-Jan-23 15:47 34.399095 -118.410823 151 9767ft 123kts
12-Jan-23 15:48 34.368742 -118.393116 155 9773ft 120kts
12-Jan-23 15:49 34.337353 -118.374871 155 9427ft 136kts
12-Jan-23 15:50 34.302506 -118.354624 155 8747ft 139kts
12-Jan-23 15:51 34.267464 -118.334258 155 8052ft 139kts
12-Jan-23 15:52 34.232436 -118.313918 155 7340ft 140kts
12-Jan-23 15:53 34.197312 -118.293541 155 6640ft 140kts
12-Jan-23 15:54 34.161702 -118.273822 171 5869ft 141kts
12-Jan-23 15:55 34.131526 -118.301420 228 5100ft 143kts
12-Jan-23 15:56 34.106371 -118.334166 228 4228ft 121kts
12-Jan-23 15:57 34.084276 -118.362829 228 3209ft 114kts
12-Jan-23 15:58 34.063177 -118.390942 237 2213ft 112kts
12-Jan-23 15:59 34.045482 -118.416584 224 1362ft 96kts
12-Jan-23 16:00 34.026846 -118.438434 224 431ft 90kts
12-Jan-23 16:01 34.013413 -118.454360 265 147ft 14kts
12-Jan-23 16:02 34.013718 -118.454849 17 147ft 0kts

Navigation Log

Ident Type
Flight plan parsing failed, navigation log unavailable